Accueil
METAR-TAF:

METAR-TAF

Aéroports :

São Paulo, São Paulo, Brésil

latitude: 23-31S, longitude: 046-38W, altitude: 722 m

Observation

Le bulletin a été fait il y a 3 heures et 13 minutes, à 02:00 UTC
Vent 2 kt de est/nord-est
Température 18°C
Humidité 68%
Pression 1018 hPa
Visibilité 10 km ou plus
pas de nuages en-dessous de 1500 mètres et pas de cumulonimbus.

METAR: SBMT 260200Z 07002KT CAVOK 18/12 Q1018

Heure: 02:13 (05:13 UTC)


TAF: absent

Observations et prévisions météorologiques de plus de 4000 aéroports (messages METAR et TAF).

Les stations disponibles sont représentées par des disques jaunes et rouges sur la carte.

Passer la souris dessus pour voir le nom de la station.

Cliquer dessus pour voir les observations et prévisions météorologiques.

Pour changer de carte: cliquez sur les boutons verts avec une croix noire pour zoomer, sur le bouton vert avec un tiret pour effectuer un zoom arrière, ou sur les flèches vertes pour les cartes adjacentes.


METAR-TAF: